createdAt,value
2023-05-01T00:00:54.605Z,73.56
2023-05-01T00:03:58.946Z,72.88
2023-05-01T00:07:03.514Z,73.20
2023-05-01T00:13:33.352Z,74.37
2023-05-01T00:16:42.162Z,73.43
2023-05-01T00:19:56.998Z,73.93
2023-05-01T00:30:16.452Z,74.06
2023-05-01T01:00:55.493Z,74.04
2023-05-01T01:03:59.913Z,73.67
2023-05-01T01:07:05.842Z,73.78
2023-05-01T01:10:12.657Z,73.78
2023-05-01T01:13:17.404Z,72.97
2023-05-01T01:16:22.045Z,73.33
2023-05-01T01:19:27.207Z,74.48
2023-05-01T01:22:35.467Z,73.83
2023-05-01T01:25:39.638Z,73.84
2023-05-01T01:28:46.022Z,73.92
2023-05-01T01:31:50.156Z,72.14
2023-05-01T01:35:01.549Z,71.28
2023-05-01T01:38:08.513Z,71.10
2023-05-01T02:31:55.183Z,69.88
2023-05-01T02:57:55.681Z,72.97
2023-05-01T03:19:17.418Z,75.26
2023-05-01T05:12:16.522Z,66.10
2023-05-01T05:15:21.305Z,67.20
2023-05-01T05:18:25.464Z,66.97
2023-05-01T07:21:19.569Z,65.49
2023-05-01T07:24:30.744Z,64.81
2023-05-01T08:09:16.396Z,67.25
2023-05-01T08:22:52.633Z,70.70
2023-05-01T08:27:02.427Z,71.29
2023-05-01T08:29:57.773Z,67.54
2023-05-01T08:33:36.483Z,69.15
2023-05-01T08:36:14.332Z,67.41
2023-05-01T08:46:14.763Z,68.11
2023-05-01T08:49:26.481Z,69.08
2023-05-01T08:59:51.509Z,68.93
2023-05-01T09:02:58.004Z,68.95
2023-05-01T09:10:20.786Z,67.06
2023-05-01T09:16:58.050Z,67.67
2023-05-01T09:34:01.930Z,69.11
2023-05-01T09:37:18.999Z,69.41
2023-05-01T09:43:55.661Z,68.66
2023-05-01T09:47:31.370Z,68.58
2023-05-01T09:50:57.458Z,67.74
2023-05-01T09:58:41.346Z,68.66
2023-05-01T10:00:46.109Z,68.41
2023-05-01T10:04:23.913Z,67.53
2023-05-01T10:07:15.256Z,66.44
2023-05-01T10:10:32.175Z,66.32
2023-05-01T10:13:52.640Z,65.93
2023-05-01T10:24:01.853Z,63.72
2023-05-01T10:27:23.545Z,63.72
2023-05-01T10:37:13.582Z,61.55
2023-05-01T10:40:29.696Z,62.51
2023-05-01T10:44:16.212Z,62.83
2023-05-01T10:52:16.632Z,63.33
2023-05-01T10:54:11.890Z,63.46
2023-05-01T10:57:54.897Z,62.81
2023-05-01T11:00:52.805Z,61.90
2023-05-01T11:04:01.448Z,60.64
2023-05-01T11:07:57.527Z,61.45
2023-05-01T11:10:35.540Z,60.56
2023-05-01T11:13:39.782Z,59.98
2023-05-01T11:16:48.517Z,60.18
2023-05-01T11:20:15.565Z,60.14
2023-05-01T11:26:53.742Z,60.70
2023-05-01T12:51:30.249Z,51.04
2023-05-01T13:15:22.825Z,49.70
2023-05-01T13:18:26.857Z,50.78
2023-05-01T13:21:30.728Z,51.41
2023-05-01T13:24:35.191Z,48.98
2023-05-01T13:27:39.261Z,49.13
2023-05-01T13:30:43.230Z,48.80
2023-05-01T13:33:48.480Z,53.46
2023-05-01T13:36:52.863Z,52.58
2023-05-01T13:39:56.880Z,52.57
2023-05-01T13:43:03.853Z,53.03
2023-05-01T13:46:07.830Z,57.29
2023-05-01T13:49:13.248Z,56.46
2023-05-01T13:52:17.458Z,57.52
2023-05-01T13:55:21.314Z,60.84
2023-05-01T13:58:25.273Z,60.52
2023-05-01T14:01:29.336Z,59.12
2023-05-01T14:04:33.561Z,59.02
2023-05-01T14:07:37.847Z,59.84
2023-05-01T14:10:41.970Z,61.51
2023-05-01T14:13:46.007Z,61.71
2023-05-01T14:16:50.425Z,60.20
2023-05-01T14:19:55.821Z,60.84
2023-05-01T14:22:59.984Z,61.91
2023-05-01T14:26:03.765Z,59.76
2023-05-01T14:29:08.021Z,59.53
2023-05-01T14:32:14.178Z,57.90
2023-05-01T14:38:40.538Z,57.18
2023-05-01T14:41:44.631Z,55.58
2023-05-01T14:44:48.453Z,57.33
2023-05-01T14:47:52.417Z,54.26
2023-05-01T14:50:56.283Z,56.22
2023-05-01T14:54:00.410Z,55.06
2023-05-01T14:57:04.678Z,52.93
2023-05-01T15:00:08.612Z,54.00
2023-05-01T15:03:23.546Z,52.52
2023-05-01T15:06:27.398Z,53.27
2023-05-01T15:09:32.768Z,53.94
2023-05-01T16:50:40.049Z,52.70
2023-05-01T16:53:54.519Z,51.00
2023-05-01T16:57:00.287Z,50.28
2023-05-01T17:00:05.617Z,50.83
2023-05-01T17:03:12.031Z,52.50
2023-05-01T17:06:40.935Z,52.63
2023-05-01T17:09:47.461Z,53.29
2023-05-01T17:12:51.648Z,54.02
2023-05-01T17:16:01.830Z,53.36
2023-05-01T17:19:09.128Z,52.01
2023-05-01T17:22:32.489Z,51.46
2023-05-01T17:29:21.890Z,53.07
2023-05-01T17:32:33.582Z,55.59
2023-05-01T17:35:41.237Z,55.10
2023-05-01T17:38:45.795Z,53.85
2023-05-01T17:41:49.692Z,54.04
2023-05-01T17:44:56.180Z,54.43
2023-05-01T17:48:00.382Z,56.71
2023-05-01T18:06:41.615Z,58.82
2023-05-01T18:09:45.434Z,54.87
2023-05-01T18:12:49.359Z,54.74
2023-05-01T18:15:53.336Z,54.12
2023-05-01T18:18:57.649Z,53.91
2023-05-01T18:22:02.474Z,54.09
2023-05-01T18:25:06.540Z,52.20
2023-05-01T18:28:10.634Z,52.75
2023-05-01T18:31:14.796Z,53.90
2023-05-01T18:34:18.841Z,56.81
2023-05-01T18:37:25.437Z,57.20
2023-05-01T18:40:29.353Z,56.44
2023-05-01T18:43:33.079Z,56.52
2023-05-01T18:46:37.298Z,57.13
2023-05-01T18:49:41.246Z,58.14
2023-05-01T18:52:45.225Z,59.67
2023-05-01T18:55:48.982Z,59.90
2023-05-01T18:58:52.811Z,60.78
2023-05-01T19:01:57.265Z,60.58
2023-05-01T19:05:01.508Z,62.18
2023-05-01T19:08:05.238Z,61.29
2023-05-01T19:11:09.456Z,62.83
2023-05-01T19:14:15.116Z,61.84
2023-05-01T19:17:20.798Z,60.84
2023-05-01T19:20:27.724Z,61.55
2023-05-01T19:23:31.704Z,60.81
2023-05-01T19:26:35.792Z,61.76
2023-05-01T19:29:39.549Z,62.62
2023-05-01T19:32:43.437Z,63.02
2023-05-01T19:35:47.175Z,62.62
2023-05-01T19:38:52.353Z,63.12
2023-05-01T19:41:56.050Z,63.26
2023-05-01T19:45:00.252Z,64.23
2023-05-01T19:48:04.396Z,62.96
2023-05-01T19:51:08.267Z,59.49
2023-05-01T19:54:12.412Z,58.20
2023-05-01T19:57:16.317Z,57.45
2023-05-01T20:00:20.211Z,58.44
2023-05-01T20:03:24.537Z,57.65
2023-05-01T20:06:28.970Z,57.47
2023-05-01T20:09:32.794Z,56.14
2023-05-01T20:12:36.797Z,55.83
2023-05-01T20:15:40.825Z,55.98
2023-05-01T20:18:45.119Z,56.33
2023-05-01T20:21:49.261Z,55.63
2023-05-01T20:24:52.804Z,56.17
2023-05-01T20:27:56.667Z,56.58
2023-05-01T20:31:01.176Z,57.15
2023-05-01T20:34:05.207Z,59.07
2023-05-01T20:37:09.122Z,59.24
2023-05-01T20:40:13.187Z,58.72
2023-05-01T20:43:17.238Z,60.22
2023-05-01T20:46:21.532Z,59.44
2023-05-01T20:49:25.749Z,59.24
2023-05-01T20:52:29.859Z,58.92
2023-05-01T20:55:33.966Z,59.19
2023-05-01T20:58:37.996Z,61.33
2023-05-01T21:01:41.995Z,60.83
2023-05-01T21:04:46.137Z,60.61
2023-05-01T21:07:50.094Z,61.16
2023-05-01T21:10:54.159Z,62.18
2023-05-01T21:13:58.308Z,61.15
2023-05-01T21:17:02.164Z,61.79
2023-05-01T21:23:28.252Z,64.78
2023-05-01T21:26:32.354Z,66.34
2023-05-01T21:29:36.348Z,63.70
2023-05-01T21:32:40.279Z,62.39
2023-05-01T21:35:44.133Z,62.93
2023-05-01T21:38:48.245Z,61.60
2023-05-01T21:41:52.571Z,62.12
2023-05-01T21:44:57.151Z,61.01
2023-05-01T21:48:00.930Z,60.21
2023-05-01T21:51:04.703Z,60.28
2023-05-01T21:54:08.471Z,58.68
2023-05-01T21:57:12.679Z,56.03
2023-05-01T22:00:16.686Z,59.53
2023-05-01T22:03:20.598Z,57.96
2023-05-01T22:06:24.994Z,56.97
2023-05-01T22:09:28.729Z,55.36
2023-05-01T22:12:32.946Z,55.22
2023-05-01T22:15:37.083Z,56.21
2023-05-01T22:18:40.996Z,55.52
2023-05-01T22:21:44.861Z,53.52
2023-05-01T22:24:48.836Z,54.64
2023-05-01T22:27:52.952Z,54.66
2023-05-01T22:30:56.876Z,53.54
2023-05-01T22:34:00.986Z,55.05
2023-05-01T22:37:05.356Z,53.81
2023-05-01T22:40:09.212Z,52.92
2023-05-01T22:43:13.191Z,53.26
2023-05-01T22:46:17.148Z,52.30
2023-05-01T22:49:21.006Z,52.30
2023-05-01T22:52:25.184Z,53.10
2023-05-01T22:55:29.401Z,54.17
2023-05-01T22:58:33.184Z,54.32
2023-05-01T23:01:36.994Z,55.21
2023-05-01T23:04:41.095Z,54.53
2023-05-01T23:07:45.321Z,55.19
2023-05-01T23:10:50.770Z,55.90
2023-05-01T23:13:54.846Z,56.13
2023-05-01T23:16:58.847Z,55.89
2023-05-01T23:20:02.856Z,57.04
2023-05-01T23:23:07.155Z,58.12
2023-05-01T23:26:11.087Z,60.42
2023-05-01T23:29:15.227Z,61.81
2023-05-01T23:32:19.165Z,62.75
2023-05-01T23:35:23.354Z,63.31
2023-05-01T23:38:27.506Z,58.77
2023-05-01T23:41:31.489Z,60.97
2023-05-01T23:44:35.272Z,59.97
2023-05-01T23:47:39.582Z,58.63
2023-05-01T23:50:43.560Z,59.28
2023-05-01T23:53:47.468Z,59.33
2023-05-01T23:56:51.338Z,59.73
2023-05-01T23:59:55.304Z,59.23
